Time;durP1;ratioP1;P1;durP2;ratioP2;P2;SDS_P1;SDS_P2;PMS_P1;PMS_P2;Temp;Humidity;BMP_temperature;BMP_pressure;BME280_temperature;BME280_humidity;BME280_pressure;Samples;Min_cycle;Max_cycle;Signal;HPM_P1;HPM_P2
2023/04/21 00:00:55;;;;;;;27.95;19.83;;;10.70;99.90;;;;;;5088889;28;20032;-78
2023/04/21 00:03:22;;;;;;;25.65;18.90;;;10.70;99.90;;;;;;5106277;28;20066;-78
2023/04/21 00:05:49;;;;;;;28.73;19.35;;;10.60;99.90;;;;;;5105431;28;20048;-78
2023/04/21 00:08:15;;;;;;;28.52;20.38;;;10.50;99.90;;;;;;5071802;28;20032;-78
2023/04/21 00:10:42;;;;;;;31.23;20.77;;;10.50;99.90;;;;;;5085521;28;20069;-78
2023/04/21 00:13:07;;;;;;;27.25;19.08;;;10.50;99.90;;;;;;5104352;28;20036;-78
2023/04/21 00:15:33;;;;;;;29.30;20.63;;;10.50;99.90;;;;;;5090347;28;20043;-78
2023/04/21 00:17:59;;;;;;;30.55;19.75;;;10.60;99.90;;;;;;5086300;28;20059;-78
2023/04/21 00:20:25;;;;;;;29.33;21.15;;;10.70;99.90;;;;;;5083373;28;20051;-78
2023/04/21 00:22:52;;;;;;;29.25;21.23;;;10.60;99.90;;;;;;5086130;28;20399;-78
2023/04/21 00:25:18;;;;;;;28.45;19.77;;;10.60;99.90;;;;;;5105695;28;20036;-78
2023/04/21 00:27:44;;;;;;;30.23;20.88;;;10.60;99.90;;;;;;5068514;28;20028;-78
2023/04/21 00:30:10;;;;;;;29.88;21.35;;;10.60;99.90;;;;;;5085383;28;20103;-78
2023/04/21 00:32:36;;;;;;;28.08;20.45;;;10.60;99.90;;;;;;5084828;28;20042;-78
2023/04/21 00:35:02;;;;;;;30.10;21.60;;;10.60;99.90;;;;;;5084546;28;20111;-77
2023/04/21 00:37:27;;;;;;;33.28;22.13;;;10.60;99.90;;;;;;5101303;28;20429;-77
2023/04/21 00:39:53;;;;;;;29.95;20.90;;;10.70;99.90;;;;;;5082222;28;20126;-77
2023/04/21 00:42:19;;;;;;;31.17;23.27;;;10.70;99.90;;;;;;5080609;28;20027;-77
2023/04/21 00:44:45;;;;;;;32.20;23.38;;;10.70;99.90;;;;;;5081769;28;20024;-77
2023/04/21 00:47:11;;;;;;;31.55;22.20;;;10.60;99.90;;;;;;5098504;28;20043;-78
2023/04/21 00:49:36;;;;;;;35.13;23.13;;;10.50;99.90;;;;;;5082196;28;20032;-78
2023/04/21 00:52:07;;;;;;;32.92;23.83;;;10.40;99.90;;;;;;5065172;28;20036;-78
2023/04/21 00:54:34;;;;;;;34.00;24.30;;;10.20;99.90;;;;;;5083293;28;20028;-78
2023/04/21 00:57:01;;;;;;;35.42;24.42;;;10.10;99.90;;;;;;5084371;28;20044;-78
2023/04/21 00:59:26;;;;;;;35.55;24.67;;;10.20;99.90;;;;;;5101031;28;20032;-77
2023/04/21 01:01:52;;;;;;;35.08;24.60;;;10.20;99.90;;;;;;5081034;28;20486;-77
2023/04/21 01:04:18;;;;;;;35.85;24.05;;;10.10;99.90;;;;;;5081763;28;20369;-78
2023/04/21 01:06:45;;;;;;;30.75;21.50;;;10.10;99.90;;;;;;5061411;28;20118;-77
2023/04/21 01:09:13;;;;;;;33.53;22.92;;;10.10;99.90;;;;;;5060498;28;20460;-77
2023/04/21 01:11:39;;;;;;;29.85;21.08;;;10.20;99.90;;;;;;5059330;28;20068;-77
2023/04/21 01:14:05;;;;;;;33.72;22.80;;;10.30;99.90;;;;;;5077567;28;20040;-77
2023/04/21 01:16:32;;;;;;;36.97;25.35;;;10.40;99.90;;;;;;5079355;28;20025;-77
2023/04/21 01:18:59;;;;;;;30.45;22.13;;;10.40;99.90;;;;;;5078308;28;20067;-77
2023/04/21 01:21:26;;;;;;;30.73;22.15;;;10.40;99.90;;;;;;5078282;28;20032;-77
2023/04/21 01:23:52;;;;;;;31.10;22.70;;;10.50;99.90;;;;;;5076918;28;20063;-77
2023/04/21 01:26:21;;;;;;;32.65;23.30;;;10.60;99.90;;;;;;5077184;28;20039;-77
2023/04/21 01:28:48;;;;;;;33.55;23.52;;;10.70;99.90;;;;;;5077439;28;20036;-77
2023/04/21 01:31:15;;;;;;;27.90;20.65;;;10.70;99.90;;;;;;5077328;28;20028;-77
2023/04/21 01:33:41;;;;;;;28.20;21.00;;;10.70;99.90;;;;;;5078058;28;20044;-78
2023/04/21 01:36:07;;;;;;;26.00;18.85;;;10.90;99.90;;;;;;5077193;28;20354;-77
2023/04/21 01:38:33;;;;;;;25.98;19.17;;;11.00;99.90;;;;;;5059714;28;20024;-77
2023/04/21 01:40:58;;;;;;;28.63;20.83;;;11.10;99.90;;;;;;5059336;28;20078;-77
2023/04/21 01:43:25;;;;;;;28.08;20.42;;;11.20;99.90;;;;;;5077277;28;20408;-77
2023/04/21 01:45:51;;;;;;;30.65;22.42;;;11.30;99.90;;;;;;5075998;28;20036;-77
2023/04/21 01:48:16;;;;;;;28.08;20.52;;;11.30;99.90;;;;;;5076587;28;20020;-77
2023/04/21 01:50:42;;;;;;;31.27;22.45;;;11.30;99.90;;;;;;5080762;28;20358;-77
2023/04/21 01:53:08;;;;;;;33.80;23.65;;;11.30;99.90;;;;;;5047939;28;20032;-77
2023/04/21 01:55:33;;;;;;;27.10;21.38;;;11.20;99.90;;;;;;5064410;28;20376;-77
2023/04/21 01:57:59;;;;;;;29.75;22.00;;;11.10;99.90;;;;;;5081825;28;20027;-77
2023/04/21 02:00:25;;;;;;;32.30;22.40;;;11.10;99.90;;;;;;5082653;28;20052;-77
2023/04/21 02:02:51;;;;;;;29.00;22.02;;;11.10;99.90;;;;;;5079488;28;20477;-77
2023/04/21 02:05:17;;;;;;;29.45;21.83;;;11.10;99.90;;;;;;5081074;28;20091;-78
2023/04/21 02:07:44;;;;;;;29.73;21.67;;;11.20;99.90;;;;;;5083352;28;20029;-77
2023/04/21 02:10:10;;;;;;;27.60;21.08;;;11.20;99.90;;;;;;5080304;28;20033;-77
2023/04/21 02:12:36;;;;;;;26.92;19.88;;;11.20;99.90;;;;;;5060226;28;20038;-77
2023/04/21 02:15:02;;;;;;;30.20;21.85;;;11.20;99.90;;;;;;5076010;28;20119;-76
2023/04/21 02:17:27;;;;;;;30.08;22.13;;;11.20;99.90;;;;;;5078518;28;20031;-77
2023/04/21 02:19:53;;;;;;;29.95;22.63;;;11.20;99.90;;;;;;5065075;28;20040;-77
2023/04/21 02:22:19;;;;;;;27.35;20.77;;;11.20;99.90;;;;;;5064059;28;20110;-77
2023/04/21 02:24:44;;;;;;;29.48;21.15;;;11.20;99.90;;;;;;5063251;28;20039;-78
2023/04/21 02:27:10;;;;;;;31.73;22.42;;;11.20;99.90;;;;;;5080021;28;20033;-77
2023/04/21 02:29:35;;;;;;;30.77;23.05;;;11.20;99.90;;;;;;5046838;28;20029;-77
2023/04/21 02:32:01;;;;;;;26.08;20.27;;;11.10;99.90;;;;;;5079364;28;20047;-77
2023/04/21 02:34:27;;;;;;;27.63;20.88;;;11.10;99.90;;;;;;5062697;28;20438;-77
2023/04/21 02:36:53;;;;;;;28.00;19.42;;;11.20;99.90;;;;;;5059793;28;20036;-77
2023/04/21 02:39:19;;;;;;;28.45;22.73;;;11.20;99.90;;;;;;5060683;28;20104;-77
2023/04/21 02:41:44;;;;;;;28.63;21.60;;;11.10;99.90;;;;;;5080388;28;20086;-78
2023/04/21 02:44:10;;;;;;;26.23;20.67;;;11.10;99.90;;;;;;5078386;28;20029;-79
2023/04/21 02:46:39;;;;;;;32.80;23.25;;;11.10;99.90;;;;;;5079148;28;20036;-77
2023/04/21 02:49:05;;;;;;;26.17;20.50;;;11.10;99.90;;;;;;5081077;28;20112;-77
2023/04/21 02:51:31;;;;;;;27.02;20.48;;;11.00;99.90;;;;;;5080514;28;20060;-77
2023/04/21 02:53:57;;;;;;;26.15;20.90;;;11.00;99.90;;;;;;5085089;28;20028;-77
2023/04/21 02:56:22;;;;;;;23.98;20.05;;;11.10;99.90;;;;;;5083235;28;20059;-77
2023/04/21 02:58:48;;;;;;;23.50;19.45;;;11.10;99.90;;;;;;5062242;28;20024;-77
2023/04/21 03:01:14;;;;;;;24.80;19.55;;;11.10;99.90;;;;;;5077192;28;20174;-77
2023/04/21 03:03:39;;;;;;;26.35;21.65;;;11.20;99.90;;;;;;5059240;28;20502;-78
2023/04/21 03:06:05;;;;;;;25.20;20.45;;;11.10;99.90;;;;;;5090458;28;20052;-77
2023/04/21 03:08:31;;;;;;;24.00;19.30;;;11.10;99.90;;;;;;5046470;28;20150;-77
2023/04/21 03:10:57;;;;;;;25.98;20.48;;;11.10;99.90;;;;;;5099703;28;20325;-77
2023/04/21 03:13:23;;;;;;;27.13;21.05;;;11.10;99.90;;;;;;5079832;28;20119;-77
2023/04/21 03:15:49;;;;;;;24.27;19.45;;;11.10;99.90;;;;;;5096483;28;20055;-77
2023/04/21 03:18:16;;;;;;;25.73;20.20;;;11.20;99.90;;;;;;5077646;28;20352;-77
2023/04/21 03:20:42;;;;;;;25.30;20.38;;;11.20;99.90;;;;;;5095393;28;20495;-77
2023/04/21 03:23:08;;;;;;;30.85;22.92;;;11.20;99.90;;;;;;5061203;28;20350;-77
2023/04/21 03:25:33;;;;;;;31.42;24.00;;;11.10;99.90;;;;;;5095206;28;20024;-77
2023/04/21 03:27:59;;;;;;;29.42;24.27;;;11.00;99.90;;;;;;5078430;28;20024;-77
2023/04/21 03:30:25;;;;;;;30.10;23.77;;;10.80;99.90;;;;;;5095370;28;20043;-77
2023/04/21 03:32:51;;;;;;;30.98;24.20;;;10.70;99.90;;;;;;5076711;28;20118;-77
2023/04/21 03:35:17;;;;;;;30.08;24.35;;;10.70;99.90;;;;;;5095546;28;20480;-77
2023/04/21 03:37:42;;;;;;;30.33;25.08;;;10.70;99.90;;;;;;5077427;28;20044;-77
2023/04/21 03:40:09;;;;;;;37.35;27.25;;;10.70;99.90;;;;;;5077765;28;20373;-77
2023/04/21 03:42:35;;;;;;;33.55;26.90;;;10.60;99.90;;;;;;5095319;28;20073;-78
2023/04/21 03:45:05;;;;;;;33.88;25.95;;;10.60;99.90;;;;;;5076309;28;20031;-77
2023/04/21 03:47:31;;;;;;;35.58;26.15;;;10.60;99.90;;;;;;5094259;28;20028;-78
2023/04/21 03:49:57;;;;;;;33.70;26.75;;;10.70;99.90;;;;;;5060097;28;20028;-78
2023/04/21 03:52:23;;;;;;;34.70;27.13;;;10.80;99.90;;;;;;5077317;28;20051;-78
2023/04/21 03:54:48;;;;;;;37.88;28.75;;;10.70;99.90;;;;;;5060315;28;20089;-78
2023/04/21 03:57:14;;;;;;;37.63;29.10;;;10.70;99.90;;;;;;5075905;28;20426;-78
2023/04/21 03:59:40;;;;;;;36.10;28.38;;;10.60;99.90;;;;;;5075991;28;20035;-78
2023/04/21 04:02:06;;;;;;;36.58;27.58;;;10.50;99.90;;;;;;5076529;28;20051;-78
2023/04/21 04:04:32;;;;;;;35.00;27.35;;;10.60;99.90;;;;;;5075747;28;20028;-77
2023/04/21 04:06:58;;;;;;;32.85;26.08;;;10.70;99.90;;;;;;5076785;28;20028;-77
2023/04/21 04:09:23;;;;;;;33.78;27.50;;;10.80;99.90;;;;;;5093661;28;20494;-77
2023/04/21 04:11:49;;;;;;;36.42;27.65;;;10.80;99.90;;;;;;5059075;28;20031;-77
2023/04/21 04:14:15;;;;;;;32.03;26.55;;;10.80;99.90;;;;;;5093482;28;20028;-78
2023/04/21 04:16:41;;;;;;;29.73;23.85;;;10.80;99.90;;;;;;5094637;28;20146;-78
2023/04/21 04:19:06;;;;;;;32.67;26.27;;;10.90;99.90;;;;;;5059542;28;20035;-78
2023/04/21 04:21:32;;;;;;;34.47;27.48;;;11.00;99.90;;;;;;5076409;28;20024;-77
2023/04/21 04:23:59;;;;;;;35.72;27.08;;;11.00;99.90;;;;;;5076737;28;20298;-78
2023/04/21 04:26:25;;;;;;;34.53;26.95;;;10.90;99.90;;;;;;5060091;28;20032;-78
2023/04/21 04:28:56;;;;;;;38.55;28.83;;;10.90;99.90;;;;;;5076375;28;20066;-78
2023/04/21 04:31:24;;;;;;;35.65;27.95;;;10.90;99.90;;;;;;5076420;28;20032;-78
2023/04/21 04:33:50;;;;;;;35.22;27.40;;;10.90;99.90;;;;;;5075686;28;20036;-78
2023/04/21 04:36:16;;;;;;;36.95;28.20;;;10.90;99.90;;;;;;5042681;28;20040;-78
2023/04/21 04:38:42;;;;;;;35.70;25.92;;;10.90;99.90;;;;;;5076034;28;20118;-78
2023/04/21 04:41:07;;;;;;;37.65;27.08;;;10.90;99.90;;;;;;5075563;28;20110;-79
2023/04/21 04:43:35;;;;;;;32.45;25.63;;;11.00;99.90;;;;;;5075542;28;20068;-77
2023/04/21 04:46:03;;;;;;;36.78;28.33;;;11.00;99.90;;;;;;5093850;28;20035;-78
2023/04/21 04:48:29;;;;;;;34.13;26.75;;;11.00;99.90;;;;;;5075914;28;20024;-77
2023/04/21 04:50:54;;;;;;;37.58;28.48;;;11.00;99.90;;;;;;5098821;28;20051;-78
2023/04/21 04:53:20;;;;;;;37.20;27.95;;;11.00;99.90;;;;;;5062867;28;20550;-78
2023/04/21 04:55:46;;;;;;;40.75;30.75;;;11.00;99.90;;;;;;5046398;28;20052;-78
2023/04/21 04:58:11;;;;;;;40.65;31.20;;;11.00;99.90;;;;;;5098444;28;20050;-78
2023/04/21 05:00:37;;;;;;;41.70;31.20;;;10.90;99.90;;;;;;5097769;28;20021;-77
2023/04/21 05:03:03;;;;;;;40.60;30.65;;;10.90;99.90;;;;;;5097897;28;20030;-77
2023/04/21 05:05:29;;;;;;;40.00;30.65;;;10.90;99.90;;;;;;5063205;28;20048;-78
2023/04/21 05:07:55;;;;;;;45.80;32.28;;;10.90;99.90;;;;;;5097728;28;20040;-78
2023/04/21 05:10:20;;;;;;;44.22;31.38;;;10.80;99.90;;;;;;5097982;28;20036;-78
2023/04/21 05:12:46;;;;;;;40.10;31.45;;;10.80;99.90;;;;;;5063434;28;20388;-78
2023/04/21 05:15:12;;;;;;;36.22;26.75;;;10.80;99.90;;;;;;5063092;28;20040;-77
2023/04/21 05:17:37;;;;;;;38.33;29.30;;;10.80;99.90;;;;;;5062404;28;20024;-77
2023/04/21 05:20:05;;;;;;;38.20;30.73;;;10.90;99.90;;;;;;5061978;28;20032;-76
2023/04/21 05:22:31;;;;;;;39.17;31.42;;;10.90;99.90;;;;;;5079320;28;20054;-77
2023/04/21 05:24:56;;;;;;;37.25;28.75;;;10.90;99.90;;;;;;5079027;28;20024;-76
2023/04/21 05:27:22;;;;;;;40.20;31.75;;;11.00;99.90;;;;;;5079272;28;20384;-77
2023/04/21 05:29:48;;;;;;;37.35;29.15;;;11.00;99.90;;;;;;5062758;28;20344;-77
2023/04/21 05:32:14;;;;;;;37.22;30.17;;;10.90;99.90;;;;;;5096919;28;20028;-77
2023/04/21 05:34:40;;;;;;;36.40;28.25;;;10.90;99.90;;;;;;5079267;28;20106;-77
2023/04/21 05:37:05;;;;;;;35.60;28.23;;;10.90;99.90;;;;;;5079381;28;20124;-76
2023/04/21 05:39:31;;;;;;;32.40;25.95;;;10.90;99.90;;;;;;5078509;28;20075;-77
2023/04/21 05:41:57;;;;;;;38.03;28.17;;;10.90;99.90;;;;;;5079114;28;20036;-77
2023/04/21 05:44:24;;;;;;;36.67;28.05;;;10.90;99.90;;;;;;5079475;28;20028;-78
2023/04/21 05:46:49;;;;;;;34.65;27.08;;;11.00;99.90;;;;;;5080149;28;20131;-77
2023/04/21 05:49:15;;;;;;;36.63;27.60;;;10.90;99.90;;;;;;5098222;28;20486;-78
2023/04/21 05:51:41;;;;;;;33.03;26.27;;;11.00;99.90;;;;;;5062281;28;20028;-77
2023/04/21 05:54:06;;;;;;;30.98;23.55;;;11.00;99.90;;;;;;5096918;28;20039;-78
2023/04/21 05:56:32;;;;;;;31.95;24.77;;;11.00;99.90;;;;;;5096818;28;20090;-78
2023/04/21 05:58:58;;;;;;;33.85;25.88;;;11.10;99.90;;;;;;5061499;28;20548;-75
2023/04/21 06:01:23;;;;;;;32.60;25.05;;;11.10;99.90;;;;;;5076321;28;20498;-74
2023/04/21 06:03:49;;;;;;;34.13;25.40;;;11.00;99.90;;;;;;5060676;28;20032;-75
2023/04/21 06:06:16;;;;;;;31.13;23.85;;;11.00;99.90;;;;;;5077594;28;20059;-75
2023/04/21 06:08:42;;;;;;;28.25;22.85;;;11.10;99.90;;;;;;5062422;28;20096;-78
2023/04/21 06:11:07;;;;;;;30.20;24.48;;;11.10;99.90;;;;;;5061401;28;20040;-78
2023/04/21 06:13:33;;;;;;;32.75;24.95;;;11.10;99.90;;;;;;5078027;28;20082;-75
2023/04/21 06:15:59;;;;;;;29.13;22.73;;;11.10;99.90;;;;;;5078281;28;20456;-74
2023/04/21 06:18:27;;;;;;;31.88;25.05;;;11.10;99.90;;;;;;5077709;28;20028;-74
2023/04/21 06:20:54;;;;;;;30.85;24.15;;;11.20;99.90;;;;;;5077733;28;20047;-75
2023/04/21 06:23:20;;;;;;;32.58;24.65;;;11.10;99.90;;;;;;5095579;28;20028;-75
2023/04/21 06:25:46;;;;;;;34.00;25.02;;;11.10;99.90;;;;;;5060947;28;20435;-74
2023/04/21 06:28:12;;;;;;;34.42;26.52;;;11.10;99.90;;;;;;5077726;28;20028;-75
2023/04/21 06:30:38;;;;;;;34.50;26.73;;;11.10;99.90;;;;;;5077497;28;20030;-74
2023/04/21 06:33:05;;;;;;;35.03;27.20;;;11.20;99.90;;;;;;5077553;28;20153;-75
2023/04/21 06:35:31;;;;;;;35.80;26.27;;;11.20;99.90;;;;;;5077582;28;20036;-75
2023/04/21 06:37:56;;;;;;;32.90;25.42;;;11.20;99.90;;;;;;5060985;28;20042;-74
2023/04/21 06:40:22;;;;;;;35.05;27.02;;;11.20;99.90;;;;;;5060448;28;20028;-74
2023/04/21 06:42:48;;;;;;;36.28;27.40;;;11.30;99.90;;;;;;5077668;28;20507;-74
2023/04/21 06:45:13;;;;;;;36.33;27.13;;;11.30;99.90;;;;;;5095870;28;20494;-74
2023/04/21 06:47:39;;;;;;;32.60;25.98;;;11.40;99.90;;;;;;5077077;28;20039;-75
2023/04/21 06:50:05;;;;;;;33.42;25.45;;;11.40;99.90;;;;;;5095365;28;20039;-74
2023/04/21 06:52:31;;;;;;;36.83;26.85;;;11.60;99.90;;;;;;5060341;28;20526;-74
2023/04/21 06:54:56;;;;;;;35.88;27.50;;;11.70;99.90;;;;;;5044346;28;20131;-75
2023/04/21 06:57:22;;;;;;;34.97;26.48;;;11.70;99.90;;;;;;5094722;28;20468;-74
2023/04/21 06:59:47;;;;;;;33.97;26.92;;;11.80;99.90;;;;;;5060006;28;20035;-75
2023/04/21 07:02:13;;;;;;;35.17;27.33;;;11.80;99.90;;;;;;5043912;28;20032;-75
2023/04/21 07:04:42;;;;;;;37.28;26.33;;;11.80;99.90;;;;;;5077244;28;20039;-74
2023/04/21 07:07:07;;;;;;;33.85;26.63;;;11.90;99.90;;;;;;5059668;28;20059;-73
2023/04/21 07:09:33;;;;;;;35.08;26.25;;;11.90;99.90;;;;;;5059953;28;20032;-73
2023/04/21 07:11:59;;;;;;;32.92;25.83;;;11.80;99.90;;;;;;5095300;28;20107;-74
2023/04/21 07:14:25;;;;;;;32.95;25.77;;;11.90;99.90;;;;;;5060324;28;20036;-74
2023/04/21 07:16:51;;;;;;;32.28;24.42;;;11.90;99.90;;;;;;5059791;28;20040;-75
2023/04/21 07:19:17;;;;;;;31.15;25.15;;;11.90;99.90;;;;;;5094731;28;20032;-74
2023/04/21 07:21:42;;;;;;;34.10;25.27;;;11.90;99.90;;;;;;5059953;28;20078;-75
2023/04/21 07:24:08;;;;;;;38.05;28.55;;;12.00;99.90;;;;;;5076769;28;20116;-73
2023/04/21 07:26:34;;;;;;;33.72;26.08;;;11.90;99.90;;;;;;5094277;28;20020;-74
2023/04/21 07:29:06;;;;;;;34.03;27.10;;;11.80;99.90;;;;;;5076251;28;20029;-74
2023/04/21 07:31:31;;;;;;;32.22;24.60;;;11.80;99.90;;;;;;5076030;28;20089;-74
2023/04/21 07:33:57;;;;;;;31.15;25.02;;;11.90;99.90;;;;;;5094865;28;20036;-74
2023/04/21 07:36:23;;;;;;;36.78;27.95;;;11.90;99.90;;;;;;5094096;28;20069;-75
2023/04/21 07:38:49;;;;;;;35.33;26.13;;;11.90;99.90;;;;;;5094256;28;20024;-75
2023/04/21 07:41:14;;;;;;;36.97;27.15;;;11.80;99.90;;;;;;5076014;28;20035;-75
2023/04/21 07:43:40;;;;;;;33.67;24.85;;;11.80;99.90;;;;;;5042928;28;20028;-76
2023/04/21 07:46:06;;;;;;;33.83;25.85;;;11.80;99.90;;;;;;5094008;28;20472;-74
2023/04/21 07:48:32;;;;;;;35.53;26.70;;;11.90;99.90;;;;;;5093640;28;20028;-75
2023/04/21 07:50:59;;;;;;;32.08;25.13;;;11.90;99.90;;;;;;5058980;28;20031;-76
2023/04/21 07:53:25;;;;;;;33.75;25.55;;;11.90;99.90;;;;;;5093742;28;20036;-75
2023/04/21 07:55:51;;;;;;;31.08;24.10;;;12.00;99.90;;;;;;5093884;28;20028;-75
2023/04/21 07:58:17;;;;;;;30.77;24.17;;;12.00;99.90;;;;;;5059201;28;20369;-75
2023/04/21 08:00:43;;;;;;;36.40;28.10;;;12.10;99.90;;;;;;5059293;28;20034;-76
2023/04/21 08:03:08;;;;;;;35.38;27.63;;;12.20;99.90;;;;;;5093749;28;20036;-76
2023/04/21 08:05:34;;;;;;;32.72;26.00;;;12.20;99.90;;;;;;5093949;28;20050;-76
2023/04/21 08:08:00;;;;;;;33.53;27.10;;;12.20;99.90;;;;;;5043403;28;20082;-76
2023/04/21 08:10:26;;;;;;;35.75;27.02;;;12.30;99.90;;;;;;5075637;28;20040;-76
2023/04/21 08:12:51;;;;;;;38.35;26.15;;;12.20;99.90;;;;;;5075753;28;20039;-76
2023/04/21 08:15:17;;;;;;;34.78;26.92;;;12.20;99.90;;;;;;5075663;28;20032;-76
2023/04/21 08:17:43;;;;;;;37.03;28.58;;;12.20;99.90;;;;;;5093947;28;20028;-76
2023/04/21 08:20:09;;;;;;;36.35;27.73;;;12.30;99.90;;;;;;5076001;28;20512;-75
2023/04/21 08:22:38;;;;;;;31.95;25.10;;;12.30;99.90;;;;;;5075848;28;20036;-75
2023/04/21 08:25:04;;;;;;;33.80;26.17;;;12.30;99.90;;;;;;5075672;28;20032;-75
2023/04/21 08:27:30;;;;;;;32.70;25.45;;;12.40;99.90;;;;;;5075848;28;20107;-76
2023/04/21 08:29:56;;;;;;;36.90;26.83;;;12.40;99.90;;;;;;5075867;28;20055;-75
2023/04/21 08:32:25;;;;;;;36.55;27.63;;;12.50;99.90;;;;;;5075349;28;20032;-76
2023/04/21 08:34:51;;;;;;;29.90;23.75;;;12.60;99.90;;;;;;5075268;28;20028;-75
2023/04/21 08:37:18;;;;;;;33.35;25.92;;;12.60;99.90;;;;;;5093449;28;20024;-76
2023/04/21 08:39:44;;;;;;;32.45;25.15;;;12.60;99.90;;;;;;5093574;28;20464;-76
2023/04/21 08:42:15;;;;;;;33.83;26.17;;;12.60;99.90;;;;;;5093586;28;20077;-77
2023/04/21 08:44:42;;;;;;;35.60;26.15;;;12.60;99.90;;;;;;5093775;28;20468;-77
2023/04/21 08:47:12;;;;;;;34.65;25.50;;;12.60;99.90;;;;;;5075383;28;20349;-76
2023/04/21 08:49:39;;;;;;;33.05;25.65;;;12.70;99.90;;;;;;5075916;28;20030;-77
2023/04/21 08:52:06;;;;;;;34.53;26.20;;;12.70;99.90;;;;;;5093535;28;20028;-77
2023/04/21 08:54:32;;;;;;;32.15;24.55;;;12.70;99.90;;;;;;5093332;28;20038;-77
2023/04/21 08:56:59;;;;;;;32.55;25.17;;;12.80;99.90;;;;;;5074769;28;20028;-76
2023/04/21 08:59:24;;;;;;;35.88;27.70;;;12.90;99.90;;;;;;5074815;28;20547;-76
2023/04/21 09:02:09;;;;;;;33.85;26.77;;;12.90;99.90;;;;;;5057593;28;20032;-78
2023/04/21 09:04:37;;;;;;;32.75;24.95;;;13.00;99.90;;;;;;5075579;28;20028;-78
2023/04/21 09:07:03;;;;;;;34.42;26.80;;;13.00;99.90;;;;;;5079710;28;20056;-78
2023/04/21 09:09:29;;;;;;;33.13;26.00;;;13.00;99.90;;;;;;5093264;28;20035;-77
2023/04/21 09:11:58;;;;;;;35.53;26.50;;;13.20;99.90;;;;;;5074094;28;20495;-77
2023/04/21 09:14:34;;;;;;;32.88;25.50;;;13.10;99.90;;;;;;5078555;28;20356;-79
2023/04/21 09:17:02;;;;;;;35.00;26.45;;;13.10;99.90;;;;;;5097015;28;20028;-78
2023/04/21 09:19:32;;;;;;;35.28;26.83;;;13.10;99.90;;;;;;5081081;28;20036;-79
2023/04/21 09:22:00;;;;;;;34.83;25.58;;;13.20;99.90;;;;;;5077240;28;20457;-79
2023/04/21 09:24:25;;;;;;;32.67;26.90;;;13.20;99.90;;;;;;5093451;28;20024;-78
2023/04/21 09:26:52;;;;;;;32.60;24.80;;;13.20;99.90;;;;;;5074928;28;20032;-79
2023/04/21 09:29:22;;;;;;;30.45;24.38;;;13.20;99.90;;;;;;5075028;28;20050;-79
2023/04/21 09:31:50;;;;;;;33.50;26.90;;;13.30;99.90;;;;;;5092743;28;20107;-80
2023/04/21 09:34:23;;;;;;;31.63;25.15;;;13.30;99.90;;;;;;5058357;28;20396;-78
2023/04/21 09:37:01;;;;;;;31.98;26.27;;;13.30;99.90;;;;;;5096555;28;20078;-79
2023/04/21 09:39:31;;;;;;;32.33;25.13;;;13.30;99.90;;;;;;5096666;28;20043;-78
2023/04/21 09:41:58;;;;;;;32.92;25.85;;;13.30;99.90;;;;;;5078824;28;20109;-78
2023/04/21 09:44:27;;;;;;;33.05;23.60;;;13.30;99.90;;;;;;5078558;28;20425;-78
2023/04/21 09:47:03;;;;;;;29.45;23.63;;;13.30;99.90;;;;;;5096798;28;20037;-77
2023/04/21 09:49:34;;;;;;;31.48;24.98;;;13.30;99.90;;;;;;5096586;28;20389;-79
2023/04/21 09:52:00;;;;;;;31.35;23.60;;;13.30;99.90;;;;;;5078278;28;20073;-78
2023/04/21 09:54:31;;;;;;;34.50;24.80;;;13.40;99.90;;;;;;5096992;28;20085;-79
2023/04/21 09:57:02;;;;;;;30.77;23.52;;;13.50;99.90;;;;;;5078428;28;20028;-78
2023/04/21 09:59:36;;;;;;;32.45;25.75;;;13.50;99.90;;;;;;5078205;28;20031;-78
2023/04/21 10:02:06;;;;;;;32.22;25.30;;;13.60;99.90;;;;;;5096516;28;20035;-79
2023/04/21 10:04:33;;;;;;;34.70;24.90;;;13.60;99.90;;;;;;5078252;28;20476;-79
2023/04/21 10:07:02;;;;;;;30.95;25.52;;;13.60;99.90;;;;;;5074858;28;20053;-79
2023/04/21 10:09:44;;;;;;;32.72;24.35;;;13.60;99.90;;;;;;5075064;28;20024;-79
2023/04/21 10:12:11;;;;;;;31.55;25.00;;;13.60;99.90;;;;;;5075410;28;20194;-79
2023/04/21 10:14:37;;;;;;;31.15;24.10;;;13.70;99.90;;;;;;5074502;28;20032;-79
2023/04/21 10:17:08;;;;;;;31.60;24.77;;;13.70;99.90;;;;;;5075801;28;20028;-79
2023/04/21 10:19:38;;;;;;;29.50;22.95;;;13.80;99.90;;;;;;5076232;28;20020;-81
2023/04/21 10:22:10;;;;;;;32.42;24.85;;;13.80;99.90;;;;;;5075975;28;20071;-82
2023/04/21 10:24:41;;;;;;;29.63;22.75;;;13.90;99.90;;;;;;5074339;28;20024;-82
2023/04/21 10:27:11;;;;;;;33.33;26.13;;;13.90;99.90;;;;;;5076108;28;20032;-77
2023/04/21 10:29:37;;;;;;;33.47;25.13;;;14.00;99.90;;;;;;5074036;28;20021;-76
2023/04/21 10:32:03;;;;;;;30.90;24.52;;;14.00;99.90;;;;;;5074141;28;20029;-76
2023/04/21 10:34:29;;;;;;;31.88;25.38;;;14.10;99.90;;;;;;5057571;28;20043;-80
2023/04/21 10:36:54;;;;;;;32.85;23.60;;;14.20;99.90;;;;;;5074772;28;20020;-79
2023/04/21 10:39:41;;;;;;;32.67;24.95;;;14.30;99.90;;;;;;5075934;28;20035;-80
2023/04/21 10:42:19;;;;;;;34.38;26.67;;;14.40;99.90;;;;;;5076314;28;20043;-79
2023/04/21 10:44:56;;;;;;;31.52;21.77;;;14.70;99.90;;;;;;5075478;28;20020;-79
2023/04/21 10:47:47;;;;;;;28.92;22.73;;;14.60;99.90;;;;;;5073570;28;20086;-79
2023/04/21 10:50:20;;;;;;;28.30;22.15;;;14.60;99.90;;;;;;5075063;28;20111;-79
2023/04/21 10:52:51;;;;;;;27.17;21.13;;;14.70;99.90;;;;;;5075018;28;20032;-79
2023/04/21 10:55:16;;;;;;;31.23;23.45;;;14.70;99.90;;;;;;5074699;28;20495;-79
2023/04/21 10:57:44;;;;;;;32.58;23.83;;;14.60;99.90;;;;;;5073165;28;20123;-80
2023/04/21 11:00:14;;;;;;;29.40;22.77;;;14.60;99.90;;;;;;5074278;28;20107;-76
2023/04/21 11:02:39;;;;;;;29.85;23.02;;;14.50;99.90;;;;;;5073195;28;20503;-76
2023/04/21 11:05:07;;;;;;;27.67;22.02;;;14.50;99.90;;;;;;5057363;28;20032;-78
2023/04/21 11:07:33;;;;;;;27.02;21.23;;;14.60;99.90;;;;;;5081239;28;20139;-79
2023/04/21 11:10:00;;;;;;;28.05;22.05;;;14.60;99.90;;;;;;5062344;28;20120;-79
2023/04/21 11:12:29;;;;;;;31.52;23.60;;;14.60;99.90;;;;;;5076371;28;20035;-79
2023/04/21 11:14:55;;;;;;;27.55;22.48;;;14.60;99.90;;;;;;5094908;28;20055;-80
2023/04/21 11:17:22;;;;;;;28.13;21.27;;;14.50;99.90;;;;;;5094458;28;20089;-82
2023/04/21 11:19:50;;;;;;;32.92;23.88;;;14.50;99.90;;;;;;5076449;28;20035;-82
2023/04/21 11:22:17;;;;;;;29.02;22.40;;;14.40;99.90;;;;;;5060703;28;20063;-81
2023/04/21 11:24:47;;;;;;;27.70;21.77;;;14.40;99.90;;;;;;5076561;28;20077;-82
2023/04/21 11:27:14;;;;;;;26.85;21.23;;;14.40;99.90;;;;;;5076730;28;20504;-82
2023/04/21 11:29:40;;;;;;;29.00;22.67;;;14.50;99.90;;;;;;5076697;28;20441;-82
2023/04/21 11:32:07;;;;;;;28.17;21.13;;;14.60;99.90;;;;;;5106009;28;20036;-83
2023/04/21 11:34:33;;;;;;;25.42;19.60;;;14.60;99.90;;;;;;5072961;28;20041;-83
2023/04/21 11:36:59;;;;;;;30.50;23.15;;;14.70;99.90;;;;;;5092847;28;20020;-82
2023/04/21 11:39:24;;;;;;;31.65;21.83;;;14.80;99.90;;;;;;5093755;28;20020;-82
2023/04/21 11:41:51;;;;;;;27.55;21.17;;;14.80;99.90;;;;;;5112082;28;20024;-83
2023/04/21 11:44:33;;;;;;;27.25;21.10;;;14.90;99.90;;;;;;5097006;28;20050;-82
2023/04/21 11:46:59;;;;;;;27.85;20.98;;;15.00;99.90;;;;;;5111362;28;20016;-82
2023/04/21 11:49:28;;;;;;;30.38;22.17;;;15.20;99.90;;;;;;5096248;28;20103;-81
2023/04/21 11:51:54;;;;;;;27.85;21.05;;;15.20;99.90;;;;;;5090088;28;20047;-82
2023/04/21 11:54:23;;;;;;;28.65;21.02;;;15.20;99.90;;;;;;5069215;28;20077;-82
2023/04/21 11:56:49;;;;;;;27.42;21.48;;;15.20;99.90;;;;;;5084468;28;20059;-82
2023/04/21 11:59:18;;;;;;;28.60;21.60;;;15.20;99.90;;;;;;5086409;28;20017;-82
2023/04/21 12:01:51;;;;;;;26.90;21.25;;;15.30;99.90;;;;;;5083197;28;20055;-82
2023/04/21 12:04:21;;;;;;;28.50;22.95;;;15.20;99.90;;;;;;5102775;28;20020;-82
2023/04/21 12:06:56;;;;;;;32.22;23.25;;;15.20;99.90;;;;;;5087561;28;20121;-82
2023/04/21 12:09:22;;;;;;;30.95;22.33;;;15.20;99.90;;;;;;5107127;28;20024;-82
2023/04/21 12:11:52;;;;;;;34.03;23.02;;;15.30;99.90;;;;;;5095099;28;20059;-82
2023/04/21 12:14:22;;;;;;;30.40;22.48;;;15.20;99.90;;;;;;5095905;28;20147;-82
2023/04/21 12:16:50;;;;;;;29.23;21.95;;;15.20;99.90;;;;;;5093113;28;20024;-82
2023/04/21 12:19:40;;;;;;;27.17;21.60;;;15.20;99.90;;;;;;5071858;28;20025;-82
2023/04/21 12:22:11;;;;;;;28.77;21.83;;;15.30;99.90;;;;;;5111711;28;20028;-83
2023/04/21 12:24:37;;;;;;;28.63;21.85;;;15.40;99.90;;;;;;5092224;28;20028;-81
2023/04/21 12:27:05;;;;;;;29.42;21.92;;;15.30;99.80;;;;;;5087244;28;20031;-83